createdAt,value
2023-01-19T00:00:51.202Z,1.20
2023-01-19T00:03:18.736Z,1.20
2023-01-19T00:05:46.057Z,1.20
2023-01-19T00:08:15.780Z,1.20
2023-01-19T00:10:44.383Z,1.20
2023-01-19T00:13:13.581Z,1.20
2023-01-19T00:15:42.387Z,1.20
2023-01-19T00:18:10.904Z,1.20
2023-01-19T00:20:38.684Z,1.20
2023-01-19T00:23:07.740Z,1.20
2023-01-19T00:25:34.851Z,1.20
2023-01-19T00:28:02.000Z,1.20
2023-01-19T00:30:29.640Z,1.20
2023-01-19T00:32:57.021Z,1.20
2023-01-19T00:35:24.067Z,1.30
2023-01-19T00:37:50.982Z,1.30
2023-01-19T00:40:18.202Z,1.40
2023-01-19T00:42:45.443Z,1.30
2023-01-19T00:45:13.964Z,1.40
2023-01-19T00:47:41.062Z,1.30
2023-01-19T00:50:08.920Z,1.30
2023-01-19T00:52:35.878Z,1.30
2023-01-19T00:55:02.861Z,1.30
2023-01-19T00:57:30.050Z,1.30
2023-01-19T00:59:57.085Z,1.30
2023-01-19T01:02:24.299Z,1.30
2023-01-19T01:04:57.015Z,1.30
2023-01-19T01:07:24.532Z,1.40
2023-01-19T01:09:51.807Z,1.30
2023-01-19T01:12:18.845Z,1.30
2023-01-19T01:14:46.001Z,1.30
2023-01-19T01:17:14.560Z,1.30
2023-01-19T01:19:41.975Z,1.30
2023-01-19T01:22:09.996Z,1.30
2023-01-19T01:24:37.031Z,1.40
2023-01-19T01:27:04.115Z,1.40
2023-01-19T01:29:31.137Z,1.30
2023-01-19T01:31:58.256Z,1.30
2023-01-19T01:34:25.333Z,1.30
2023-01-19T01:36:52.306Z,1.30
2023-01-19T01:39:19.285Z,1.20
2023-01-19T01:41:46.579Z,1.20
2023-01-19T01:44:40.541Z,1.20
2023-01-19T01:47:07.530Z,1.20
2023-01-19T01:49:34.528Z,1.20
2023-01-19T01:52:01.695Z,1.20
2023-01-19T01:54:30.275Z,1.20
2023-01-19T01:56:59.855Z,1.20
2023-01-19T01:59:29.594Z,1.20
2023-01-19T02:02:16.515Z,1.20
2023-01-19T02:04:46.932Z,1.20
2023-01-19T02:07:34.615Z,1.20
2023-01-19T02:10:20.359Z,1.20
2023-01-19T02:13:06.281Z,1.10
2023-01-19T02:15:33.355Z,1.10
2023-01-19T02:18:00.491Z,1.10
2023-01-19T02:20:30.988Z,1.10
2023-01-19T02:23:00.599Z,1.00
2023-01-19T02:25:27.765Z,1.10
2023-01-19T02:27:54.932Z,1.10
2023-01-19T02:30:22.071Z,1.00
2023-01-19T02:32:49.415Z,1.00
2023-01-19T02:35:16.497Z,1.00
2023-01-19T02:37:44.795Z,1.80
2023-01-19T02:40:13.245Z,1.00
2023-01-19T02:42:44.754Z,1.00
2023-01-19T02:45:13.112Z,1.00
2023-01-19T02:47:47.686Z,1.00
2023-01-19T02:50:33.311Z,1.00
2023-01-19T02:53:05.609Z,1.00
2023-01-19T02:55:32.930Z,1.00
2023-01-19T02:58:03.330Z,1.00
2023-01-19T03:01:02.575Z,1.00
2023-01-19T03:03:38.590Z,1.00
2023-01-19T03:06:09.044Z,1.00
2023-01-19T03:08:44.155Z,1.00
2023-01-19T03:11:14.794Z,1.00
2023-01-19T03:13:41.999Z,1.00
2023-01-19T03:16:22.906Z,1.00
2023-01-19T03:18:54.009Z,1.00
2023-01-19T03:21:24.050Z,1.00
2023-01-19T03:23:51.571Z,1.00
2023-01-19T03:26:21.622Z,1.00
2023-01-19T03:28:49.167Z,1.00
2023-01-19T03:31:17.907Z,1.00
2023-01-19T03:33:49.673Z,1.00
2023-01-19T03:36:21.926Z,1.00
2023-01-19T03:38:50.020Z,1.00
2023-01-19T03:41:17.949Z,1.00
2023-01-19T03:43:46.105Z,1.00
2023-01-19T03:46:17.527Z,1.00
2023-01-19T03:48:45.475Z,1.00
2023-01-19T03:51:13.615Z,1.00
2023-01-19T03:53:41.058Z,1.00
2023-01-19T03:56:12.055Z,1.00
2023-01-19T03:58:39.045Z,1.10
2023-01-19T04:01:06.200Z,1.00
2023-01-19T04:03:33.404Z,1.00
2023-01-19T04:06:00.418Z,1.10
2023-01-19T04:08:27.462Z,1.10
2023-01-19T04:10:54.451Z,1.00
2023-01-19T04:13:21.366Z,1.00
2023-01-19T04:15:48.788Z,1.00
2023-01-19T04:18:15.844Z,1.10
2023-01-19T04:20:42.921Z,1.10
2023-01-19T04:23:09.942Z,1.10
2023-01-19T04:25:38.859Z,1.10
2023-01-19T04:28:06.017Z,1.10
2023-01-19T04:30:33.094Z,1.10
2023-01-19T04:33:00.499Z,1.00
2023-01-19T04:35:27.605Z,1.10
2023-01-19T04:37:54.674Z,1.10
2023-01-19T04:40:21.675Z,1.10
2023-01-19T04:42:48.588Z,1.10
2023-01-19T04:45:15.617Z,1.10
2023-01-19T04:47:42.895Z,1.10
2023-01-19T04:50:10.701Z,1.10
2023-01-19T04:52:38.051Z,1.10
2023-01-19T04:55:05.792Z,1.10
2023-01-19T04:57:33.020Z,1.10
2023-01-19T05:00:00.058Z,1.10
2023-01-19T05:02:27.341Z,1.10
2023-01-19T05:04:54.353Z,1.00
2023-01-19T05:07:21.382Z,1.10
2023-01-19T05:09:48.372Z,1.10
2023-01-19T05:12:15.617Z,1.00
2023-01-19T05:14:43.576Z,1.10
2023-01-19T05:17:10.834Z,1.00
2023-01-19T05:19:37.853Z,1.10
2023-01-19T05:22:05.320Z,1.10
2023-01-19T05:24:32.386Z,1.10
2023-01-19T05:26:59.599Z,1.10
2023-01-19T05:29:26.646Z,1.10
2023-01-19T05:31:53.652Z,1.10
2023-01-19T05:34:20.679Z,1.10
2023-01-19T05:36:47.731Z,1.10
2023-01-19T05:39:14.722Z,1.20
2023-01-19T05:41:42.240Z,1.20
2023-01-19T05:44:10.161Z,1.20
2023-01-19T05:46:37.193Z,1.20
2023-01-19T05:49:05.342Z,1.20
2023-01-19T05:51:35.502Z,1.20
2023-01-19T05:54:02.527Z,1.30
2023-01-19T05:56:29.492Z,1.30
2023-01-19T05:58:56.728Z,1.40
2023-01-19T06:01:23.773Z,1.30
2023-01-19T06:03:50.790Z,1.40
2023-01-19T06:06:18.027Z,1.40
2023-01-19T06:08:45.326Z,1.40
2023-01-19T06:11:12.841Z,1.40
2023-01-19T06:13:41.953Z,1.40
2023-01-19T06:16:09.370Z,1.40
2023-01-19T06:18:36.459Z,1.40
2023-01-19T06:21:07.617Z,1.40
2023-01-19T06:23:34.855Z,1.40
2023-01-19T06:26:02.204Z,1.50
2023-01-19T06:28:29.261Z,1.40
2023-01-19T06:30:56.748Z,1.50
2023-01-19T06:33:24.428Z,1.50
2023-01-19T06:35:52.186Z,1.50
2023-01-19T06:38:19.611Z,1.50
2023-01-19T06:40:51.705Z,1.50
2023-01-19T06:43:20.490Z,1.50
2023-01-19T06:45:48.099Z,1.50
2023-01-19T06:48:15.208Z,1.40
2023-01-19T06:50:42.296Z,1.50
2023-01-19T06:53:09.403Z,1.50
2023-01-19T06:55:36.647Z,1.50
2023-01-19T06:58:03.691Z,1.50
2023-01-19T07:00:31.002Z,1.50
2023-01-19T07:02:58.000Z,1.50
2023-01-19T07:05:25.200Z,1.50
2023-01-19T07:07:56.380Z,1.50
2023-01-19T07:10:24.290Z,1.60
2023-01-19T07:12:51.875Z,1.60
2023-01-19T07:15:22.832Z,1.50
2023-01-19T07:17:50.043Z,1.50
2023-01-19T07:20:19.743Z,1.50
2023-01-19T07:22:46.924Z,1.50
2023-01-19T07:25:14.413Z,1.50
2023-01-19T07:27:41.754Z,1.50
2023-01-19T07:30:09.417Z,1.60
2023-01-19T07:32:36.466Z,1.60
2023-01-19T07:35:03.711Z,1.60
2023-01-19T07:37:30.679Z,1.60
2023-01-19T07:39:57.684Z,1.60
2023-01-19T07:42:24.750Z,1.60
2023-01-19T07:44:51.722Z,1.60
2023-01-19T07:47:18.782Z,1.70
2023-01-19T07:49:45.845Z,1.70
2023-01-19T07:52:12.845Z,1.70
2023-01-19T07:54:39.822Z,1.70
2023-01-19T07:57:07.411Z,1.80
2023-01-19T07:59:34.415Z,1.70
2023-01-19T08:02:01.548Z,1.70
2023-01-19T08:04:29.026Z,1.80
2023-01-19T08:06:56.303Z,1.70
2023-01-19T08:09:24.541Z,1.80
2023-01-19T08:11:51.825Z,1.70
2023-01-19T08:14:18.799Z,1.80
2023-01-19T08:16:45.816Z,1.80
2023-01-19T08:19:12.941Z,1.70
2023-01-19T08:21:39.907Z,1.80
2023-01-19T08:24:07.308Z,1.80
2023-01-19T08:26:35.248Z,1.70
2023-01-19T08:29:04.508Z,1.70
2023-01-19T08:31:31.900Z,1.60
2023-01-19T08:33:59.110Z,1.60
2023-01-19T08:36:26.303Z,1.60
2023-01-19T08:38:53.369Z,1.60
2023-01-19T08:41:20.430Z,1.60
2023-01-19T08:43:47.770Z,1.70
2023-01-19T08:46:20.934Z,1.60
2023-01-19T08:48:50.913Z,1.60
2023-01-19T08:51:18.069Z,1.50
2023-01-19T08:53:45.028Z,1.60
2023-01-19T08:56:14.693Z,1.70
2023-01-19T08:58:42.341Z,1.70
2023-01-19T09:01:09.776Z,1.80
2023-01-19T09:03:37.431Z,1.80
2023-01-19T09:06:07.721Z,1.70
2023-01-19T09:08:34.652Z,1.70
2023-01-19T09:11:02.197Z,1.70
2023-01-19T09:13:29.136Z,1.70
2023-01-19T09:15:56.141Z,1.70
2023-01-19T09:18:23.161Z,2.00
2023-01-19T09:20:50.489Z,2.00
2023-01-19T09:23:19.476Z,1.90
2023-01-19T09:25:47.402Z,1.90
2023-01-19T09:28:15.074Z,2.10
2023-01-19T09:30:42.796Z,2.20
2023-01-19T09:33:11.374Z,2.10
2023-01-19T09:35:39.110Z,2.00
2023-01-19T09:38:07.699Z,2.20
2023-01-19T09:40:36.808Z,2.50
2023-01-19T09:43:14.309Z,2.50
2023-01-19T09:45:52.757Z,2.20
2023-01-19T09:48:28.836Z,1.80
2023-01-19T09:50:57.887Z,1.70
2023-01-19T09:53:43.622Z,1.70
2023-01-19T09:56:15.206Z,1.80
2023-01-19T09:58:42.723Z,1.80
2023-01-19T10:01:30.159Z,1.80
2023-01-19T10:04:08.052Z,1.80
2023-01-19T10:06:35.177Z,1.90
2023-01-19T10:09:14.581Z,2.10
2023-01-19T10:12:19.099Z,2.10
2023-01-19T10:14:52.092Z,2.10
2023-01-19T10:17:32.902Z,2.10
2023-01-19T10:20:02.116Z,2.20
2023-01-19T10:22:29.212Z,2.40
2023-01-19T10:24:57.349Z,2.50
2023-01-19T10:27:29.119Z,2.50
2023-01-19T10:29:56.887Z,2.80
2023-01-19T10:32:28.285Z,2.80
2023-01-19T10:34:55.880Z,2.80
2023-01-19T10:37:31.946Z,3.10
2023-01-19T10:40:14.646Z,3.30
2023-01-19T10:42:42.157Z,3.20
2023-01-19T10:45:16.499Z,3.30
2023-01-19T10:47:44.213Z,3.30
2023-01-19T10:50:39.874Z,3.20
2023-01-19T10:53:17.400Z,2.90
2023-01-19T10:55:44.420Z,2.60
2023-01-19T10:58:28.218Z,2.30
2023-01-19T11:00:55.548Z,2.10
2023-01-19T11:03:30.971Z,2.00
2023-01-19T11:06:13.949Z,2.00
2023-01-19T11:08:41.844Z,2.00
2023-01-19T11:11:09.404Z,2.00
2023-01-19T11:13:37.285Z,2.00
2023-01-19T11:16:04.258Z,2.00
2023-01-19T11:18:38.370Z,2.00
2023-01-19T11:21:06.728Z,1.90
2023-01-19T11:23:33.811Z,1.90
2023-01-19T11:26:01.979Z,1.90
2023-01-19T11:28:31.818Z,1.90
2023-01-19T11:31:00.508Z,1.90
2023-01-19T11:33:37.831Z,1.80
2023-01-19T11:36:06.290Z,1.90
2023-01-19T11:38:40.279Z,1.90
2023-01-19T11:41:13.372Z,1.80
2023-01-19T11:43:49.026Z,1.90
2023-01-19T11:46:17.794Z,1.90
2023-01-19T11:49:01.278Z,1.90
2023-01-19T11:51:30.902Z,1.80
2023-01-19T11:53:57.848Z,1.80
2023-01-19T11:56:26.792Z,1.80
2023-01-19T11:58:53.964Z,1.80
2023-01-19T12:01:25.721Z,1.80
2023-01-19T12:04:05.107Z,1.80
2023-01-19T12:06:36.081Z,1.80
2023-01-19T12:09:11.861Z,1.80
2023-01-19T12:11:44.406Z,1.80
2023-01-19T12:14:18.076Z,1.80
2023-01-19T12:16:45.406Z,1.70
2023-01-19T12:19:20.062Z,1.80
2023-01-19T12:21:53.776Z,1.80
2023-01-19T12:24:36.948Z,1.80
2023-01-19T12:27:13.713Z,1.70
2023-01-19T12:29:41.494Z,1.80
2023-01-19T12:32:14.479Z,1.80
2023-01-19T12:34:48.790Z,1.80
2023-01-19T12:37:28.994Z,1.80
2023-01-19T12:40:00.865Z,1.80
2023-01-19T12:42:28.249Z,1.80
2023-01-19T12:45:13.820Z,1.80
2023-01-19T12:47:44.025Z,1.80
2023-01-19T12:50:17.136Z,1.80
2023-01-19T12:53:04.334Z,1.80
2023-01-19T12:55:36.607Z,1.80
2023-01-19T12:58:05.388Z,1.80
2023-01-19T13:00:36.835Z,1.70
2023-01-19T13:03:05.458Z,1.70
2023-01-19T13:05:33.210Z,1.80
2023-01-19T13:08:03.543Z,1.70
2023-01-19T13:10:49.155Z,1.70
2023-01-19T13:13:20.610Z,1.70
2023-01-19T13:15:47.641Z,1.70
2023-01-19T13:18:18.941Z,1.70
2023-01-19T13:20:58.648Z,1.70
2023-01-19T13:23:26.922Z,1.70
2023-01-19T13:25:58.917Z,1.70
2023-01-19T13:28:32.067Z,1.70
2023-01-19T13:31:00.282Z,1.70
2023-01-19T13:33:28.277Z,1.70
2023-01-19T13:35:56.758Z,1.60
2023-01-19T13:38:24.388Z,1.60
2023-01-19T13:40:52.381Z,1.60
2023-01-19T13:43:26.263Z,1.60
2023-01-19T13:45:54.054Z,1.60
2023-01-19T13:48:24.730Z,1.60
2023-01-19T13:50:59.836Z,1.60
2023-01-19T13:53:26.933Z,1.60
2023-01-19T13:56:07.305Z,1.60
2023-01-19T13:58:34.230Z,1.60
2023-01-19T14:01:01.252Z,1.60
2023-01-19T14:03:28.300Z,1.50
2023-01-19T14:05:55.370Z,1.50
2023-01-19T14:08:22.921Z,1.50
2023-01-19T14:11:02.541Z,1.50
2023-01-19T14:13:31.051Z,1.50
2023-01-19T14:16:04.480Z,1.50
2023-01-19T14:18:35.244Z,1.50
2023-01-19T14:21:06.274Z,1.50
2023-01-19T14:24:08.714Z,1.40
2023-01-19T14:26:38.786Z,1.40
2023-01-19T14:29:17.878Z,1.40
2023-01-19T14:31:46.329Z,1.40
2023-01-19T14:34:32.076Z,1.40
2023-01-19T14:36:59.202Z,1.40
2023-01-19T14:39:27.317Z,1.40
2023-01-19T14:41:55.802Z,1.40
2023-01-19T14:44:22.727Z,1.40
2023-01-19T14:46:49.888Z,1.40
2023-01-19T14:49:19.600Z,1.30
2023-01-19T14:51:47.944Z,1.30
2023-01-19T14:54:19.293Z,1.30
2023-01-19T14:56:46.226Z,1.30
2023-01-19T14:59:13.295Z,1.30
2023-01-19T15:01:40.353Z,1.30
2023-01-19T15:04:07.422Z,1.30
2023-01-19T15:06:35.076Z,1.20
2023-01-19T15:09:02.031Z,1.20
2023-01-19T15:11:35.327Z,1.20
2023-01-19T15:14:02.702Z,1.20
2023-01-19T15:16:31.827Z,1.20
2023-01-19T15:18:58.875Z,1.10
2023-01-19T15:21:28.776Z,1.10
2023-01-19T15:23:55.875Z,1.10
2023-01-19T15:26:24.240Z,1.00
2023-01-19T15:28:51.599Z,1.00
2023-01-19T15:31:19.716Z,0.90
2023-01-19T15:33:46.862Z,0.90
2023-01-19T15:36:16.998Z,0.90
2023-01-19T15:38:45.309Z,0.80
2023-01-19T15:41:17.006Z,0.80
2023-01-19T15:43:43.981Z,0.70
2023-01-19T15:46:13.486Z,0.80
2023-01-19T15:48:40.503Z,0.70
2023-01-19T15:51:11.926Z,0.70
2023-01-19T15:53:39.801Z,0.60
2023-01-19T15:56:07.005Z,0.50
2023-01-19T15:58:34.076Z,0.50
2023-01-19T16:01:01.216Z,0.50
2023-01-19T16:03:28.385Z,0.40
2023-01-19T16:05:55.341Z,0.40
2023-01-19T16:08:22.305Z,0.30
2023-01-19T16:10:49.302Z,0.30
2023-01-19T16:13:16.207Z,0.20
2023-01-19T16:15:43.294Z,0.20
2023-01-19T16:18:10.469Z,0.20
2023-01-19T16:20:37.501Z,0.20
2023-01-19T16:23:19.604Z,0.20
2023-01-19T16:25:55.496Z,0.20
2023-01-19T16:28:22.395Z,0.20
2023-01-19T16:30:49.849Z,0.30
2023-01-19T16:33:16.918Z,0.20
2023-01-19T16:35:43.841Z,0.30
2023-01-19T16:38:10.823Z,0.20
2023-01-19T16:40:37.892Z,0.30
2023-01-19T16:43:05.083Z,0.30
2023-01-19T16:45:32.151Z,0.30
2023-01-19T16:47:59.245Z,0.30
2023-01-19T16:50:26.268Z,0.20
2023-01-19T16:52:56.053Z,0.30
2023-01-19T16:55:23.116Z,0.30
2023-01-19T16:57:50.168Z,0.20
2023-01-19T17:00:17.365Z,0.20
2023-01-19T17:02:44.484Z,0.20
2023-01-19T17:05:11.753Z,0.20
2023-01-19T17:07:39.001Z,0.20
2023-01-19T17:10:06.421Z,0.20
2023-01-19T17:12:33.435Z,0.20
2023-01-19T17:15:00.451Z,0.20
2023-01-19T17:17:27.561Z,0.30
2023-01-19T17:19:54.586Z,0.20
2023-01-19T17:22:21.657Z,0.20
2023-01-19T17:24:49.362Z,0.20
2023-01-19T17:27:17.368Z,0.20
2023-01-19T17:29:44.385Z,0.20
2023-01-19T17:32:11.459Z,0.20
2023-01-19T17:34:38.511Z,0.20
2023-01-19T17:37:05.513Z,0.20
2023-01-19T17:39:32.671Z,0.20
2023-01-19T17:41:59.770Z,0.20
2023-01-19T17:44:26.868Z,0.20
2023-01-19T17:46:53.834Z,0.20
2023-01-19T17:49:20.857Z,0.20
2023-01-19T17:51:52.063Z,0.20
2023-01-19T17:54:19.310Z,0.20
2023-01-19T17:56:46.377Z,0.20
2023-01-19T17:59:13.321Z,0.20
2023-01-19T18:01:41.416Z,0.30
2023-01-19T18:04:09.022Z,0.30
2023-01-19T18:06:36.560Z,0.30
2023-01-19T18:09:05.166Z,0.20
2023-01-19T18:11:32.231Z,0.30
2023-01-19T18:14:00.865Z,0.30
2023-01-19T18:16:29.277Z,0.30
2023-01-19T18:18:56.864Z,0.30
2023-01-19T18:21:25.067Z,0.30
2023-01-19T18:23:52.183Z,0.30
2023-01-19T18:26:21.270Z,0.30
2023-01-19T18:28:48.669Z,0.30
2023-01-19T18:31:17.655Z,0.30
2023-01-19T18:33:44.787Z,0.30
2023-01-19T18:36:11.873Z,0.40
2023-01-19T18:38:38.977Z,0.30
2023-01-19T18:41:07.503Z,0.40
2023-01-19T18:43:34.682Z,0.40
2023-01-19T18:46:02.323Z,0.40
2023-01-19T18:48:29.406Z,0.30
2023-01-19T18:50:57.104Z,0.40
2023-01-19T18:53:24.570Z,0.30
2023-01-19T18:55:52.985Z,0.30
2023-01-19T18:58:20.323Z,0.30
2023-01-19T19:00:47.941Z,0.40
2023-01-19T19:03:14.974Z,0.30
2023-01-19T19:05:42.317Z,0.40
2023-01-19T19:08:09.537Z,0.30
2023-01-19T19:10:37.009Z,0.30
2023-01-19T19:13:04.607Z,0.30
2023-01-19T19:15:32.382Z,0.30
2023-01-19T19:17:59.531Z,0.40
2023-01-19T19:20:26.814Z,0.40
2023-01-19T19:22:55.071Z,0.40
2023-01-19T19:25:22.144Z,0.40
2023-01-19T19:27:52.649Z,0.40
2023-01-19T19:30:20.917Z,0.40
2023-01-19T19:32:57.506Z,0.40
2023-01-19T19:35:24.545Z,0.40
2023-01-19T19:37:53.812Z,0.40
2023-01-19T19:40:20.901Z,0.40
2023-01-19T19:42:47.910Z,0.40
2023-01-19T19:45:15.841Z,0.40
2023-01-19T19:47:45.776Z,0.40
2023-01-19T19:50:13.058Z,0.40
2023-01-19T19:52:43.086Z,0.40
2023-01-19T19:55:11.004Z,0.40
2023-01-19T19:57:38.348Z,0.30
2023-01-19T20:00:05.857Z,0.30
2023-01-19T20:02:33.005Z,0.30
2023-01-19T20:05:00.076Z,0.30
2023-01-19T20:07:27.152Z,0.30
2023-01-19T20:09:55.375Z,0.30
2023-01-19T20:12:22.384Z,0.30
2023-01-19T20:14:49.614Z,0.30
2023-01-19T20:17:16.638Z,0.20
2023-01-19T20:19:45.837Z,0.20
2023-01-19T20:22:12.832Z,0.20
2023-01-19T20:24:40.004Z,0.10
2023-01-19T20:27:07.011Z,0.10
2023-01-19T20:29:34.016Z,0.00
2023-01-19T20:32:01.187Z,-0.10
2023-01-19T20:34:32.108Z,-0.10
2023-01-19T20:37:00.815Z,-0.10
2023-01-19T20:39:29.214Z,-0.10
2023-01-19T20:41:56.232Z,-0.20
2023-01-19T20:44:23.804Z,-0.20
2023-01-19T20:46:51.277Z,-0.30
2023-01-19T20:49:18.438Z,-0.30
2023-01-19T20:51:47.098Z,-0.30
2023-01-19T20:54:15.861Z,-0.40
2023-01-19T20:56:42.864Z,-0.40
2023-01-19T20:59:10.552Z,-0.40
2023-01-19T21:01:38.018Z,-0.40
2023-01-19T21:04:05.151Z,-0.40
2023-01-19T21:06:32.102Z,-0.40
2023-01-19T21:08:59.100Z,-0.50
2023-01-19T21:11:26.390Z,-0.50
2023-01-19T21:13:56.158Z,-0.50
2023-01-19T21:16:24.383Z,-0.50
2023-01-19T21:18:51.451Z,-0.50
2023-01-19T21:21:29.753Z,-0.50
2023-01-19T21:23:57.820Z,-0.50
2023-01-19T21:26:24.885Z,-0.40
2023-01-19T21:28:51.908Z,-0.50
2023-01-19T21:31:18.894Z,-0.40
2023-01-19T21:33:45.982Z,-0.40
2023-01-19T21:36:12.959Z,-0.40
2023-01-19T21:38:40.233Z,-0.40
2023-01-19T21:41:08.247Z,-0.50
2023-01-19T21:43:36.005Z,-0.50
2023-01-19T21:46:10.276Z,-0.50
2023-01-19T21:48:37.291Z,-0.50
2023-01-19T21:51:04.300Z,-0.60
2023-01-19T21:53:31.373Z,-0.50
2023-01-19T21:55:59.054Z,-0.60
2023-01-19T21:58:26.295Z,-0.50
2023-01-19T22:01:00.785Z,-0.60
2023-01-19T22:03:28.240Z,-0.50
2023-01-19T22:05:56.151Z,-0.50
2023-01-19T22:08:24.144Z,-0.40
2023-01-19T22:10:51.141Z,-0.50
2023-01-19T22:13:18.039Z,-0.50
2023-01-19T22:15:45.044Z,-0.50
2023-01-19T22:18:12.006Z,-0.50
2023-01-19T22:20:39.180Z,-0.60
2023-01-19T22:23:06.127Z,-0.60
2023-01-19T22:25:33.379Z,-0.60
2023-01-19T22:28:00.311Z,-0.60
2023-01-19T22:30:27.383Z,-0.50
2023-01-19T22:32:54.511Z,-0.50
2023-01-19T22:35:21.482Z,-0.50
2023-01-19T22:37:48.503Z,-1.40
2023-01-19T22:40:15.656Z,-0.40
2023-01-19T22:42:47.008Z,-0.40
2023-01-19T22:45:14.375Z,-0.40
2023-01-19T22:47:41.776Z,-0.40
2023-01-19T22:50:08.961Z,-0.40
2023-01-19T22:52:36.078Z,-0.40
2023-01-19T22:55:03.059Z,-0.30
2023-01-19T22:57:33.705Z,-0.40
2023-01-19T23:00:00.778Z,-0.40
2023-01-19T23:02:27.855Z,-0.40
2023-01-19T23:04:54.889Z,-0.40
2023-01-19T23:07:21.954Z,-0.50
2023-01-19T23:09:48.931Z,-0.50
2023-01-19T23:12:15.829Z,-0.40
2023-01-19T23:14:42.871Z,-0.40
2023-01-19T23:17:09.830Z,-0.40
2023-01-19T23:19:36.821Z,-0.40
2023-01-19T23:22:03.852Z,-0.40
2023-01-19T23:24:31.008Z,-0.40
2023-01-19T23:26:58.071Z,-0.40
2023-01-19T23:29:25.164Z,-0.40
2023-01-19T23:31:53.643Z,-0.30
2023-01-19T23:34:20.596Z,-0.30
2023-01-19T23:36:47.553Z,-0.30
2023-01-19T23:39:16.328Z,-0.40
2023-01-19T23:41:43.351Z,-0.40
2023-01-19T23:44:10.350Z,-0.40
2023-01-19T23:46:37.509Z,-0.40
2023-01-19T23:49:04.488Z,-0.30
2023-01-19T23:51:31.973Z,-0.40
2023-01-19T23:53:59.575Z,-0.40
2023-01-19T23:56:27.951Z,-0.40
2023-01-19T23:58:59.423Z,-0.50
